sensor_id;sensor_type;location;lat;lon;timestamp;P1;durP1;ratioP1;P2;durP2;ratioP2
80621;SDS011;69980;51.914;7.526;2023-10-13T00:00:11;28.27;;;23.88;;
80621;SDS011;69980;51.914;7.526;2023-10-13T00:02:36;28.83;;;21.92;;
80621;SDS011;69980;51.914;7.526;2023-10-13T00:05:02;26.42;;;23.10;;
80621;SDS011;69980;51.914;7.526;2023-10-13T00:07:27;28.98;;;22.38;;
80621;SDS011;69980;51.914;7.526;2023-10-13T00:09:52;26.75;;;21.65;;
80621;SDS011;69980;51.914;7.526;2023-10-13T00:12:18;26.70;;;20.88;;
80621;SDS011;69980;51.914;7.526;2023-10-13T00:14:43;26.13;;;21.90;;
80621;SDS011;69980;51.914;7.526;2023-10-13T00:17:08;25.80;;;22.40;;
80621;SDS011;69980;51.914;7.526;2023-10-13T00:19:34;25.38;;;21.88;;
80621;SDS011;69980;51.914;7.526;2023-10-13T00:22:00;28.98;;;21.23;;
80621;SDS011;69980;51.914;7.526;2023-10-13T00:24:26;24.88;;;21.83;;
80621;SDS011;69980;51.914;7.526;2023-10-13T00:26:51;27.60;;;21.80;;
80621;SDS011;69980;51.914;7.526;2023-10-13T00:29:16;25.02;;;21.35;;
80621;SDS011;69980;51.914;7.526;2023-10-13T00:31:42;26.65;;;21.30;;
80621;SDS011;69980;51.914;7.526;2023-10-13T00:34:08;24.85;;;20.63;;
80621;SDS011;69980;51.914;7.526;2023-10-13T00:36:34;29.17;;;22.40;;
80621;SDS011;69980;51.914;7.526;2023-10-13T00:39:00;26.83;;;22.00;;
80621;SDS011;69980;51.914;7.526;2023-10-13T00:41:25;26.95;;;20.77;;
80621;SDS011;69980;51.914;7.526;2023-10-13T00:43:50;26.67;;;20.27;;
80621;SDS011;69980;51.914;7.526;2023-10-13T00:46:16;25.15;;;19.80;;
80621;SDS011;69980;51.914;7.526;2023-10-13T00:48:42;25.73;;;19.52;;
80621;SDS011;69980;51.914;7.526;2023-10-13T00:51:08;22.63;;;19.58;;
80621;SDS011;69980;51.914;7.526;2023-10-13T00:53:35;23.75;;;18.95;;
80621;SDS011;69980;51.914;7.526;2023-10-13T00:56:01;22.80;;;18.45;;
80621;SDS011;69980;51.914;7.526;2023-10-13T00:58:26;22.27;;;18.60;;
80621;SDS011;69980;51.914;7.526;2023-10-13T01:00:52;24.75;;;18.90;;
80621;SDS011;69980;51.914;7.526;2023-10-13T01:03:17;23.92;;;18.90;;
80621;SDS011;69980;51.914;7.526;2023-10-13T01:05:42;23.92;;;18.75;;
80621;SDS011;69980;51.914;7.526;2023-10-13T01:08:08;21.85;;;16.95;;
80621;SDS011;69980;51.914;7.526;2023-10-13T01:10:33;22.13;;;17.33;;
80621;SDS011;69980;51.914;7.526;2023-10-13T01:12:58;23.42;;;17.10;;
80621;SDS011;69980;51.914;7.526;2023-10-13T01:15:24;19.67;;;16.30;;
80621;SDS011;69980;51.914;7.526;2023-10-13T01:17:49;23.17;;;16.83;;
80621;SDS011;69980;51.914;7.526;2023-10-13T01:20:15;19.85;;;15.40;;
80621;SDS011;69980;51.914;7.526;2023-10-13T01:22:40;25.20;;;16.55;;
80621;SDS011;69980;51.914;7.526;2023-10-13T01:25:05;22.05;;;16.80;;
80621;SDS011;69980;51.914;7.526;2023-10-13T01:27:31;20.23;;;15.32;;
80621;SDS011;69980;51.914;7.526;2023-10-13T01:29:56;20.85;;;15.75;;
80621;SDS011;69980;51.914;7.526;2023-10-13T01:32:22;19.33;;;15.70;;
80621;SDS011;69980;51.914;7.526;2023-10-13T01:34:47;19.65;;;15.55;;
80621;SDS011;69980;51.914;7.526;2023-10-13T01:37:16;18.65;;;15.20;;
80621;SDS011;69980;51.914;7.526;2023-10-13T01:39:42;16.75;;;14.65;;
80621;SDS011;69980;51.914;7.526;2023-10-13T01:42:07;20.52;;;15.35;;
80621;SDS011;69980;51.914;7.526;2023-10-13T01:44:33;21.83;;;16.17;;
80621;SDS011;69980;51.914;7.526;2023-10-13T01:47:01;21.15;;;16.65;;
80621;SDS011;69980;51.914;7.526;2023-10-13T01:49:27;23.38;;;16.70;;
80621;SDS011;69980;51.914;7.526;2023-10-13T01:51:52;18.08;;;14.93;;
80621;SDS011;69980;51.914;7.526;2023-10-13T01:54:17;20.45;;;16.65;;
80621;SDS011;69980;51.914;7.526;2023-10-13T01:56:43;20.65;;;15.50;;
80621;SDS011;69980;51.914;7.526;2023-10-13T01:59:09;23.30;;;16.77;;
80621;SDS011;69980;51.914;7.526;2023-10-13T02:01:35;21.63;;;16.10;;
80621;SDS011;69980;51.914;7.526;2023-10-13T02:04:00;17.80;;;15.85;;
80621;SDS011;69980;51.914;7.526;2023-10-13T02:06:26;20.15;;;17.02;;
80621;SDS011;69980;51.914;7.526;2023-10-13T02:08:52;21.52;;;15.05;;
80621;SDS011;69980;51.914;7.526;2023-10-13T02:11:18;20.23;;;15.40;;
80621;SDS011;69980;51.914;7.526;2023-10-13T02:13:43;25.23;;;15.55;;
80621;SDS011;69980;51.914;7.526;2023-10-13T02:16:08;17.30;;;15.32;;
80621;SDS011;69980;51.914;7.526;2023-10-13T02:18:33;19.92;;;15.48;;
80621;SDS011;69980;51.914;7.526;2023-10-13T02:21:02;19.02;;;14.57;;
80621;SDS011;69980;51.914;7.526;2023-10-13T02:23:28;19.63;;;15.88;;
80621;SDS011;69980;51.914;7.526;2023-10-13T02:25:53;17.48;;;14.70;;
80621;SDS011;69980;51.914;7.526;2023-10-13T02:28:18;18.83;;;14.70;;
80621;SDS011;69980;51.914;7.526;2023-10-13T02:30:44;19.08;;;14.48;;
80621;SDS011;69980;51.914;7.526;2023-10-13T02:33:09;20.75;;;13.95;;
80621;SDS011;69980;51.914;7.526;2023-10-13T02:35:37;18.83;;;15.00;;
80621;SDS011;69980;51.914;7.526;2023-10-13T02:38:03;20.38;;;15.40;;
80621;SDS011;69980;51.914;7.526;2023-10-13T02:40:28;18.60;;;14.45;;
80621;SDS011;69980;51.914;7.526;2023-10-13T02:42:54;19.10;;;14.88;;
80621;SDS011;69980;51.914;7.526;2023-10-13T02:45:19;18.00;;;14.13;;
80621;SDS011;69980;51.914;7.526;2023-10-13T02:47:44;18.48;;;15.13;;
80621;SDS011;69980;51.914;7.526;2023-10-13T02:50:10;20.67;;;15.15;;
80621;SDS011;69980;51.914;7.526;2023-10-13T02:52:35;20.55;;;14.88;;
80621;SDS011;69980;51.914;7.526;2023-10-13T02:55:00;18.38;;;14.20;;
80621;SDS011;69980;51.914;7.526;2023-10-13T02:57:25;19.70;;;13.30;;
80621;SDS011;69980;51.914;7.526;2023-10-13T02:59:51;17.65;;;13.93;;
80621;SDS011;69980;51.914;7.526;2023-10-13T03:02:16;19.90;;;14.35;;
80621;SDS011;69980;51.914;7.526;2023-10-13T03:04:41;20.40;;;13.57;;
80621;SDS011;69980;51.914;7.526;2023-10-13T03:07:07;16.77;;;14.55;;
80621;SDS011;69980;51.914;7.526;2023-10-13T03:09:32;20.83;;;14.05;;
80621;SDS011;69980;51.914;7.526;2023-10-13T03:11:57;21.38;;;14.90;;
80621;SDS011;69980;51.914;7.526;2023-10-13T03:14:23;19.25;;;13.57;;
80621;SDS011;69980;51.914;7.526;2023-10-13T03:16:48;15.88;;;12.82;;
80621;SDS011;69980;51.914;7.526;2023-10-13T03:19:14;19.40;;;13.73;;
80621;SDS011;69980;51.914;7.526;2023-10-13T03:21:39;17.52;;;14.07;;
80621;SDS011;69980;51.914;7.526;2023-10-13T03:24:04;18.45;;;13.23;;
80621;SDS011;69980;51.914;7.526;2023-10-13T03:26:30;17.25;;;12.43;;
80621;SDS011;69980;51.914;7.526;2023-10-13T03:28:56;17.13;;;13.13;;
80621;SDS011;69980;51.914;7.526;2023-10-13T03:31:21;16.45;;;12.65;;
80621;SDS011;69980;51.914;7.526;2023-10-13T03:33:46;16.15;;;13.15;;
80621;SDS011;69980;51.914;7.526;2023-10-13T03:36:13;15.75;;;12.35;;
80621;SDS011;69980;51.914;7.526;2023-10-13T03:38:38;17.27;;;12.95;;
80621;SDS011;69980;51.914;7.526;2023-10-13T03:41:03;17.85;;;12.38;;
80621;SDS011;69980;51.914;7.526;2023-10-13T03:43:29;17.42;;;12.52;;
80621;SDS011;69980;51.914;7.526;2023-10-13T03:45:54;14.57;;;12.43;;
80621;SDS011;69980;51.914;7.526;2023-10-13T03:48:19;18.65;;;12.60;;
80621;SDS011;69980;51.914;7.526;2023-10-13T03:50:45;19.35;;;12.18;;
80621;SDS011;69980;51.914;7.526;2023-10-13T03:53:10;14.40;;;11.55;;
80621;SDS011;69980;51.914;7.526;2023-10-13T03:55:35;16.08;;;11.85;;
80621;SDS011;69980;51.914;7.526;2023-10-13T03:58:01;17.27;;;11.35;;
80621;SDS011;69980;51.914;7.526;2023-10-13T04:00:26;17.13;;;12.00;;
80621;SDS011;69980;51.914;7.526;2023-10-13T04:02:51;15.68;;;11.82;;
80621;SDS011;69980;51.914;7.526;2023-10-13T04:05:17;17.90;;;12.50;;
80621;SDS011;69980;51.914;7.526;2023-10-13T04:07:42;15.70;;;11.23;;
80621;SDS011;69980;51.914;7.526;2023-10-13T04:10:07;16.17;;;11.00;;
80621;SDS011;69980;51.914;7.526;2023-10-13T04:12:33;14.20;;;10.90;;
80621;SDS011;69980;51.914;7.526;2023-10-13T04:14:59;14.43;;;10.90;;
80621;SDS011;69980;51.914;7.526;2023-10-13T04:17:24;15.25;;;10.77;;
80621;SDS011;69980;51.914;7.526;2023-10-13T04:19:50;12.75;;;10.18;;
80621;SDS011;69980;51.914;7.526;2023-10-13T04:22:16;15.20;;;10.80;;
80621;SDS011;69980;51.914;7.526;2023-10-13T04:24:42;15.95;;;11.48;;
80621;SDS011;69980;51.914;7.526;2023-10-13T04:27:07;14.95;;;10.48;;
80621;SDS011;69980;51.914;7.526;2023-10-13T04:29:32;14.40;;;10.63;;
80621;SDS011;69980;51.914;7.526;2023-10-13T04:31:57;17.83;;;10.68;;
80621;SDS011;69980;51.914;7.526;2023-10-13T04:34:23;13.65;;;11.43;;
80621;SDS011;69980;51.914;7.526;2023-10-13T04:36:48;17.83;;;11.65;;
80621;SDS011;69980;51.914;7.526;2023-10-13T04:39:13;12.95;;;10.40;;
80621;SDS011;69980;51.914;7.526;2023-10-13T04:41:39;15.68;;;10.70;;
80621;SDS011;69980;51.914;7.526;2023-10-13T04:44:05;15.98;;;11.05;;
80621;SDS011;69980;51.914;7.526;2023-10-13T04:46:31;17.98;;;10.70;;
80621;SDS011;69980;51.914;7.526;2023-10-13T04:48:56;13.55;;;9.75;;
80621;SDS011;69980;51.914;7.526;2023-10-13T04:51:22;18.17;;;11.35;;
80621;SDS011;69980;51.914;7.526;2023-10-13T04:53:47;14.00;;;9.63;;
80621;SDS011;69980;51.914;7.526;2023-10-13T04:56:12;13.10;;;10.18;;
80621;SDS011;69980;51.914;7.526;2023-10-13T04:58:37;14.20;;;11.25;;
80621;SDS011;69980;51.914;7.526;2023-10-13T05:01:03;16.38;;;10.65;;
80621;SDS011;69980;51.914;7.526;2023-10-13T05:03:28;12.60;;;10.35;;
80621;SDS011;69980;51.914;7.526;2023-10-13T05:05:54;16.65;;;11.52;;
80621;SDS011;69980;51.914;7.526;2023-10-13T05:08:19;14.93;;;9.93;;
80621;SDS011;69980;51.914;7.526;2023-10-13T05:10:44;14.35;;;10.63;;
80621;SDS011;69980;51.914;7.526;2023-10-13T05:13:09;13.05;;;9.65;;
80621;SDS011;69980;51.914;7.526;2023-10-13T05:15:42;14.45;;;10.27;;
80621;SDS011;69980;51.914;7.526;2023-10-13T05:18:07;15.50;;;11.43;;
80621;SDS011;69980;51.914;7.526;2023-10-13T05:20:33;13.77;;;10.32;;
80621;SDS011;69980;51.914;7.526;2023-10-13T05:22:58;16.60;;;10.65;;
80621;SDS011;69980;51.914;7.526;2023-10-13T05:25:23;15.57;;;11.23;;
80621;SDS011;69980;51.914;7.526;2023-10-13T05:27:49;12.85;;;10.63;;
80621;SDS011;69980;51.914;7.526;2023-10-13T05:30:14;14.63;;;11.82;;
80621;SDS011;69980;51.914;7.526;2023-10-13T05:32:40;15.32;;;12.15;;
80621;SDS011;69980;51.914;7.526;2023-10-13T05:35:05;15.38;;;12.20;;
80621;SDS011;69980;51.914;7.526;2023-10-13T05:37:30;17.88;;;12.10;;
80621;SDS011;69980;51.914;7.526;2023-10-13T05:39:56;17.77;;;12.98;;
80621;SDS011;69980;51.914;7.526;2023-10-13T05:42:21;13.35;;;11.95;;
80621;SDS011;69980;51.914;7.526;2023-10-13T05:44:46;17.25;;;12.48;;
80621;SDS011;69980;51.914;7.526;2023-10-13T05:47:12;13.48;;;11.98;;
80621;SDS011;69980;51.914;7.526;2023-10-13T05:49:37;17.13;;;12.65;;
80621;SDS011;69980;51.914;7.526;2023-10-13T05:52:02;13.70;;;11.27;;
80621;SDS011;69980;51.914;7.526;2023-10-13T05:54:28;13.85;;;11.48;;
80621;SDS011;69980;51.914;7.526;2023-10-13T05:56:53;16.67;;;12.57;;
80621;SDS011;69980;51.914;7.526;2023-10-13T05:59:18;18.92;;;11.85;;
80621;SDS011;69980;51.914;7.526;2023-10-13T06:01:44;14.65;;;10.82;;
80621;SDS011;69980;51.914;7.526;2023-10-13T06:04:09;14.00;;;11.15;;
80621;SDS011;69980;51.914;7.526;2023-10-13T06:06:34;14.90;;;11.07;;
80621;SDS011;69980;51.914;7.526;2023-10-13T06:09:00;14.38;;;10.55;;
80621;SDS011;69980;51.914;7.526;2023-10-13T06:11:25;16.98;;;11.23;;
80621;SDS011;69980;51.914;7.526;2023-10-13T06:13:50;14.13;;;10.18;;
80621;SDS011;69980;51.914;7.526;2023-10-13T06:16:16;13.35;;;10.68;;
80621;SDS011;69980;51.914;7.526;2023-10-13T06:18:42;13.57;;;10.07;;
80621;SDS011;69980;51.914;7.526;2023-10-13T06:21:07;13.95;;;10.27;;
80621;SDS011;69980;51.914;7.526;2023-10-13T06:23:32;14.18;;;10.65;;
80621;SDS011;69980;51.914;7.526;2023-10-13T06:25:57;14.95;;;10.45;;
80621;SDS011;69980;51.914;7.526;2023-10-13T06:28:23;13.05;;;10.10;;
80621;SDS011;69980;51.914;7.526;2023-10-13T06:30:58;12.93;;;9.77;;
80621;SDS011;69980;51.914;7.526;2023-10-13T06:33:24;13.00;;;10.07;;
80621;SDS011;69980;51.914;7.526;2023-10-13T06:35:50;11.23;;;9.20;;
80621;SDS011;69980;51.914;7.526;2023-10-13T06:38:15;11.73;;;9.50;;
80621;SDS011;69980;51.914;7.526;2023-10-13T06:40:44;10.88;;;8.23;;
80621;SDS011;69980;51.914;7.526;2023-10-13T06:43:10;10.60;;;7.43;;
80621;SDS011;69980;51.914;7.526;2023-10-13T06:45:36;10.30;;;7.53;;
80621;SDS011;69980;51.914;7.526;2023-10-13T06:48:01;10.95;;;7.47;;
80621;SDS011;69980;51.914;7.526;2023-10-13T06:50:26;13.20;;;7.53;;
80621;SDS011;69980;51.914;7.526;2023-10-13T06:52:52;8.93;;;7.50;;
80621;SDS011;69980;51.914;7.526;2023-10-13T06:55:17;10.30;;;6.88;;
80621;SDS011;69980;51.914;7.526;2023-10-13T06:57:45;12.85;;;7.32;;
80621;SDS011;69980;51.914;7.526;2023-10-13T07:00:11;10.20;;;7.03;;
80621;SDS011;69980;51.914;7.526;2023-10-13T07:02:36;9.82;;;7.05;;
80621;SDS011;69980;51.914;7.526;2023-10-13T07:05:02;10.00;;;7.22;;
80621;SDS011;69980;51.914;7.526;2023-10-13T07:07:27;9.82;;;7.05;;
80621;SDS011;69980;51.914;7.526;2023-10-13T07:09:52;10.10;;;6.78;;
80621;SDS011;69980;51.914;7.526;2023-10-13T07:12:18;13.75;;;7.53;;
80621;SDS011;69980;51.914;7.526;2023-10-13T07:14:46;8.70;;;6.30;;
80621;SDS011;69980;51.914;7.526;2023-10-13T07:17:12;10.10;;;6.88;;
80621;SDS011;69980;51.914;7.526;2023-10-13T07:19:37;11.50;;;6.72;;
80621;SDS011;69980;51.914;7.526;2023-10-13T07:22:03;9.68;;;6.22;;
80621;SDS011;69980;51.914;7.526;2023-10-13T07:24:28;9.93;;;5.90;;
80621;SDS011;69980;51.914;7.526;2023-10-13T07:26:54;10.23;;;6.28;;
80621;SDS011;69980;51.914;7.526;2023-10-13T07:29:19;8.98;;;5.72;;
80621;SDS011;69980;51.914;7.526;2023-10-13T07:31:44;10.10;;;6.28;;
80621;SDS011;69980;51.914;7.526;2023-10-13T07:34:10;8.45;;;6.10;;
80621;SDS011;69980;51.914;7.526;2023-10-13T07:36:35;7.90;;;5.38;;
80621;SDS011;69980;51.914;7.526;2023-10-13T07:39:00;7.47;;;5.65;;
80621;SDS011;69980;51.914;7.526;2023-10-13T07:41:26;9.35;;;5.80;;
80621;SDS011;69980;51.914;7.526;2023-10-13T07:43:51;11.20;;;5.78;;
80621;SDS011;69980;51.914;7.526;2023-10-13T07:46:16;9.68;;;5.22;;
80621;SDS011;69980;51.914;7.526;2023-10-13T07:48:41;12.45;;;5.68;;
80621;SDS011;69980;51.914;7.526;2023-10-13T07:51:08;10.80;;;5.88;;
80621;SDS011;69980;51.914;7.526;2023-10-13T07:53:34;9.38;;;5.47;;
80621;SDS011;69980;51.914;7.526;2023-10-13T07:55:59;12.40;;;5.45;;
80621;SDS011;69980;51.914;7.526;2023-10-13T07:58:27;10.75;;;5.30;;
80621;SDS011;69980;51.914;7.526;2023-10-13T08:00:53;11.18;;;4.68;;
80621;SDS011;69980;51.914;7.526;2023-10-13T08:03:18;9.27;;;4.80;;
80621;SDS011;69980;51.914;7.526;2023-10-13T08:05:44;9.57;;;4.15;;
80621;SDS011;69980;51.914;7.526;2023-10-13T08:08:09;11.65;;;5.00;;
80621;SDS011;69980;51.914;7.526;2023-10-13T08:10:35;13.13;;;4.63;;
80621;SDS011;69980;51.914;7.526;2023-10-13T08:13:01;12.30;;;4.63;;
80621;SDS011;69980;51.914;7.526;2023-10-13T08:15:26;10.00;;;4.25;;
80621;SDS011;69980;51.914;7.526;2023-10-13T08:17:52;13.07;;;4.70;;
80621;SDS011;69980;51.914;7.526;2023-10-13T08:20:17;15.70;;;5.05;;
80621;SDS011;69980;51.914;7.526;2023-10-13T08:22:42;10.88;;;4.20;;
80621;SDS011;69980;51.914;7.526;2023-10-13T08:25:08;13.20;;;4.45;;
80621;SDS011;69980;51.914;7.526;2023-10-13T08:27:33;11.57;;;4.32;;
80621;SDS011;69980;51.914;7.526;2023-10-13T08:29:58;12.00;;;4.30;;
80621;SDS011;69980;51.914;7.526;2023-10-13T08:32:24;11.63;;;4.40;;
80621;SDS011;69980;51.914;7.526;2023-10-13T08:34:50;11.10;;;4.53;;
80621;SDS011;69980;51.914;7.526;2023-10-13T08:37:15;12.05;;;4.60;;
80621;SDS011;69980;51.914;7.526;2023-10-13T08:39:41;13.63;;;4.63;;
80621;SDS011;69980;51.914;7.526;2023-10-13T08:42:06;10.48;;;4.50;;
80621;SDS011;69980;51.914;7.526;2023-10-13T08:44:31;12.95;;;4.65;;
80621;SDS011;69980;51.914;7.526;2023-10-13T08:46:57;9.85;;;4.40;;
80621;SDS011;69980;51.914;7.526;2023-10-13T08:49:22;9.70;;;4.28;;
80621;SDS011;69980;51.914;7.526;2023-10-13T08:51:47;11.05;;;4.05;;
80621;SDS011;69980;51.914;7.526;2023-10-13T08:54:14;15.02;;;4.60;;
80621;SDS011;69980;51.914;7.526;2023-10-13T08:56:40;12.88;;;4.60;;
80621;SDS011;69980;51.914;7.526;2023-10-13T08:59:05;9.23;;;4.45;;
80621;SDS011;69980;51.914;7.526;2023-10-13T09:01:34;9.45;;;4.00;;
80621;SDS011;69980;51.914;7.526;2023-10-13T09:04:01;12.02;;;4.35;;
80621;SDS011;69980;51.914;7.526;2023-10-13T09:06:27;11.05;;;4.45;;
80621;SDS011;69980;51.914;7.526;2023-10-13T09:08:52;12.23;;;4.63;;
80621;SDS011;69980;51.914;7.526;2023-10-13T09:11:17;9.68;;;4.38;;
80621;SDS011;69980;51.914;7.526;2023-10-13T09:13:43;11.90;;;4.28;;
80621;SDS011;69980;51.914;7.526;2023-10-13T09:16:09;9.70;;;4.45;;
80621;SDS011;69980;51.914;7.526;2023-10-13T09:18:40;11.02;;;4.70;;
80621;SDS011;69980;51.914;7.526;2023-10-13T09:21:05;12.50;;;4.22;;
80621;SDS011;69980;51.914;7.526;2023-10-13T09:23:30;11.57;;;4.53;;
80621;SDS011;69980;51.914;7.526;2023-10-13T09:25:56;10.68;;;4.25;;
80621;SDS011;69980;51.914;7.526;2023-10-13T09:28:30;9.63;;;4.38;;
80621;SDS011;69980;51.914;7.526;2023-10-13T09:30:55;10.82;;;4.40;;
80621;SDS011;69980;51.914;7.526;2023-10-13T09:33:21;14.02;;;4.50;;
80621;SDS011;69980;51.914;7.526;2023-10-13T09:35:47;13.13;;;4.18;;
80621;SDS011;69980;51.914;7.526;2023-10-13T09:38:13;8.50;;;4.07;;
80621;SDS011;69980;51.914;7.526;2023-10-13T09:40:38;10.40;;;4.55;;
80621;SDS011;69980;51.914;7.526;2023-10-13T09:43:04;10.27;;;4.05;;
80621;SDS011;69980;51.914;7.526;2023-10-13T09:45:30;9.02;;;4.25;;
80621;SDS011;69980;51.914;7.526;2023-10-13T09:47:57;11.52;;;3.92;;
80621;SDS011;69980;51.914;7.526;2023-10-13T09:50:27;11.48;;;3.97;;
80621;SDS011;69980;51.914;7.526;2023-10-13T09:52:54;14.45;;;4.38;;
80621;SDS011;69980;51.914;7.526;2023-10-13T09:55:21;9.98;;;4.05;;
80621;SDS011;69980;51.914;7.526;2023-10-13T09:57:54;10.70;;;3.90;;
80621;SDS011;69980;51.914;7.526;2023-10-13T10:00:23;10.63;;;4.30;;
80621;SDS011;69980;51.914;7.526;2023-10-13T10:02:51;10.30;;;4.05;;
80621;SDS011;69980;51.914;7.526;2023-10-13T10:05:23;11.15;;;4.25;;
80621;SDS011;69980;51.914;7.526;2023-10-13T10:10:21;9.85;;;3.90;;
80621;SDS011;69980;51.914;7.526;2023-10-13T10:12:52;12.38;;;4.32;;
80621;SDS011;69980;51.914;7.526;2023-10-13T10:17:51;12.35;;;4.28;;
80621;SDS011;69980;51.914;7.526;2023-10-13T10:20:16;11.18;;;4.38;;
80621;SDS011;69980;51.914;7.526;2023-10-13T10:22:41;11.00;;;4.10;;
80621;SDS011;69980;51.914;7.526;2023-10-13T10:25:07;12.75;;;4.45;;
80621;SDS011;69980;51.914;7.526;2023-10-13T10:27:32;12.23;;;3.75;;
80621;SDS011;69980;51.914;7.526;2023-10-13T10:29:58;9.70;;;4.07;;
80621;SDS011;69980;51.914;7.526;2023-10-13T10:32:36;11.00;;;4.68;;
80621;SDS011;69980;51.914;7.526;2023-10-13T10:35:03;10.60;;;3.88;;
80621;SDS011;69980;51.914;7.526;2023-10-13T10:37:33;13.35;;;4.10;;
80621;SDS011;69980;51.914;7.526;2023-10-13T10:39:58;13.57;;;4.30;;
80621;SDS011;69980;51.914;7.526;2023-10-13T10:42:24;10.13;;;4.43;;
80621;SDS011;69980;51.914;7.526;2023-10-13T10:44:49;11.23;;;4.30;;
80621;SDS011;69980;51.914;7.526;2023-10-13T10:47:15;9.65;;;4.05;;
80621;SDS011;69980;51.914;7.526;2023-10-13T10:49:40;10.75;;;4.40;;
80621;SDS011;69980;51.914;7.526;2023-10-13T10:52:07;10.23;;;4.55;;
80621;SDS011;69980;51.914;7.526;2023-10-13T10:54:34;12.25;;;4.40;;
80621;SDS011;69980;51.914;7.526;2023-10-13T10:57:00;12.55;;;4.47;;
80621;SDS011;69980;51.914;7.526;2023-10-13T10:59:25;12.27;;;4.50;;
80621;SDS011;69980;51.914;7.526;2023-10-13T11:01:50;10.20;;;4.32;;
80621;SDS011;69980;51.914;7.526;2023-10-13T11:04:16;12.63;;;4.20;;
80621;SDS011;69980;51.914;7.526;2023-10-13T11:06:46;9.45;;;4.20;;
80621;SDS011;69980;51.914;7.526;2023-10-13T11:09:28;12.38;;;4.53;;
80621;SDS011;69980;51.914;7.526;2023-10-13T11:11:54;12.57;;;4.70;;
80621;SDS011;69980;51.914;7.526;2023-10-13T11:14:29;11.00;;;4.10;;
80621;SDS011;69980;51.914;7.526;2023-10-13T11:16:56;11.32;;;4.05;;
80621;SDS011;69980;51.914;7.526;2023-10-13T11:22:15;15.55;;;4.65;;
80621;SDS011;69980;51.914;7.526;2023-10-13T11:24:44;11.82;;;4.45;;
80621;SDS011;69980;51.914;7.526;2023-10-13T11:27:13;12.43;;;4.75;;
80621;SDS011;69980;51.914;7.526;2023-10-13T11:29:39;11.63;;;4.45;;
80621;SDS011;69980;51.914;7.526;2023-10-13T11:32:05;11.35;;;4.70;;
80621;SDS011;69980;51.914;7.526;2023-10-13T11:34:30;11.05;;;4.65;;
80621;SDS011;69980;51.914;7.526;2023-10-13T11:36:55;12.73;;;4.47;;
80621;SDS011;69980;51.914;7.526;2023-10-13T11:39:21;15.65;;;5.35;;
80621;SDS011;69980;51.914;7.526;2023-10-13T11:41:46;12.52;;;4.80;;
80621;SDS011;69980;51.914;7.526;2023-10-13T11:44:11;11.05;;;4.80;;
80621;SDS011;69980;51.914;7.526;2023-10-13T11:46:37;9.50;;;4.80;;
80621;SDS011;69980;51.914;7.526;2023-10-13T11:49:04;13.27;;;5.00;;
80621;SDS011;69980;51.914;7.526;2023-10-13T11:51:29;12.18;;;4.63;;
80621;SDS011;69980;51.914;7.526;2023-10-13T11:53:55;10.18;;;4.68;;
80621;SDS011;69980;51.914;7.526;2023-10-13T11:56:20;11.57;;;5.00;;
80621;SDS011;69980;51.914;7.526;2023-10-13T11:58:46;10.20;;;4.93;;
80621;SDS011;69980;51.914;7.526;2023-10-13T12:01:11;16.50;;;5.20;;
80621;SDS011;69980;51.914;7.526;2023-10-13T12:03:37;12.13;;;5.03;;
80621;SDS011;69980;51.914;7.526;2023-10-13T12:06:02;13.30;;;5.32;;
80621;SDS011;69980;51.914;7.526;2023-10-13T12:08:27;10.60;;;5.07;;
80621;SDS011;69980;51.914;7.526;2023-10-13T12:10:53;10.57;;;4.70;;
80621;SDS011;69980;51.914;7.526;2023-10-13T12:13:18;10.55;;;4.65;;
80621;SDS011;69980;51.914;7.526;2023-10-13T12:15:43;11.85;;;4.95;;
80621;SDS011;69980;51.914;7.526;2023-10-13T12:18:08;10.15;;;4.95;;
80621;SDS011;69980;51.914;7.526;2023-10-13T12:20:34;8.48;;;4.65;;
80621;SDS011;69980;51.914;7.526;2023-10-13T12:23:00;12.50;;;5.40;;
80621;SDS011;69980;51.914;7.526;2023-10-13T12:25:25;12.10;;;4.80;;
80621;SDS011;69980;51.914;7.526;2023-10-13T12:27:54;14.95;;;5.07;;
80621;SDS011;69980;51.914;7.526;2023-10-13T12:30:19;13.85;;;5.30;;
80621;SDS011;69980;51.914;7.526;2023-10-13T12:32:44;11.77;;;5.05;;
80621;SDS011;69980;51.914;7.526;2023-10-13T12:35:10;17.20;;;5.38;;
80621;SDS011;69980;51.914;7.526;2023-10-13T12:37:35;11.93;;;4.70;;
80621;SDS011;69980;51.914;7.526;2023-10-13T12:40:01;12.68;;;5.13;;
80621;SDS011;69980;51.914;7.526;2023-10-13T12:42:27;13.82;;;5.25;;
80621;SDS011;69980;51.914;7.526;2023-10-13T12:44:52;11.65;;;4.88;;
80621;SDS011;69980;51.914;7.526;2023-10-13T12:47:17;13.75;;;4.60;;
80621;SDS011;69980;51.914;7.526;2023-10-13T12:49:43;11.20;;;5.00;;
80621;SDS011;69980;51.914;7.526;2023-10-13T12:52:08;13.88;;;4.82;;
80621;SDS011;69980;51.914;7.526;2023-10-13T12:54:34;12.75;;;4.97;;
80621;SDS011;69980;51.914;7.526;2023-10-13T12:57:00;16.60;;;4.60;;
80621;SDS011;69980;51.914;7.526;2023-10-13T12:59:25;11.30;;;4.82;;
80621;SDS011;69980;51.914;7.526;2023-10-13T13:01:50;11.75;;;4.68;;
80621;SDS011;69980;51.914;7.526;2023-10-13T13:04:16;11.80;;;4.53;;
80621;SDS011;69980;51.914;7.526;2023-10-13T13:06:41;12.93;;;5.10;;
80621;SDS011;69980;51.914;7.526;2023-10-13T13:09:06;16.35;;;5.07;;
80621;SDS011;69980;51.914;7.526;2023-10-13T13:11:31;17.67;;;5.40;;
80621;SDS011;69980;51.914;7.526;2023-10-13T13:13:57;11.40;;;4.57;;
80621;SDS011;69980;51.914;7.526;2023-10-13T13:16:22;16.00;;;4.93;;
80621;SDS011;69980;51.914;7.526;2023-10-13T13:18:47;12.40;;;4.82;;
80621;SDS011;69980;51.914;7.526;2023-10-13T13:21:13;13.25;;;4.78;;
80621;SDS011;69980;51.914;7.526;2023-10-13T13:23:38;14.48;;;4.43;;
80621;SDS011;69980;51.914;7.526;2023-10-13T13:26:03;22.27;;;5.70;;
80621;SDS011;69980;51.914;7.526;2023-10-13T13:28:28;16.40;;;5.00;;
80621;SDS011;69980;51.914;7.526;2023-10-13T13:30:54;14.60;;;4.82;;
80621;SDS011;69980;51.914;7.526;2023-10-13T13:33:20;13.70;;;4.65;;
80621;SDS011;69980;51.914;7.526;2023-10-13T13:35:45;19.70;;;5.32;;
80621;SDS011;69980;51.914;7.526;2023-10-13T13:38:10;16.50;;;4.97;;
80621;SDS011;69980;51.914;7.526;2023-10-13T13:40:39;12.95;;;4.75;;
80621;SDS011;69980;51.914;7.526;2023-10-13T13:43:04;17.33;;;4.88;;
80621;SDS011;69980;51.914;7.526;2023-10-13T13:45:30;17.95;;;5.28;;
80621;SDS011;69980;51.914;7.526;2023-10-13T13:47:55;14.65;;;4.63;;
80621;SDS011;69980;51.914;7.526;2023-10-13T13:52:46;19.10;;;5.33;;
80621;SDS011;69980;51.914;7.526;2023-10-13T13:55:11;17.98;;;5.25;;
80621;SDS011;69980;51.914;7.526;2023-10-13T13:57:37;18.63;;;5.13;;
80621;SDS011;69980;51.914;7.526;2023-10-13T14:00:02;16.60;;;4.70;;
80621;SDS011;69980;51.914;7.526;2023-10-13T14:02:27;15.95;;;4.90;;
80621;SDS011;69980;51.914;7.526;2023-10-13T14:04:53;19.77;;;5.03;;
80621;SDS011;69980;51.914;7.526;2023-10-13T14:07:18;19.83;;;5.45;;
80621;SDS011;69980;51.914;7.526;2023-10-13T14:09:44;14.05;;;4.72;;
80621;SDS011;69980;51.914;7.526;2023-10-13T14:12:09;17.40;;;5.07;;
80621;SDS011;69980;51.914;7.526;2023-10-13T14:14:34;15.85;;;4.70;;
80621;SDS011;69980;51.914;7.526;2023-10-13T14:17:00;16.60;;;4.90;;
80621;SDS011;69980;51.914;7.526;2023-10-13T14:19:25;14.50;;;4.85;;
80621;SDS011;69980;51.914;7.526;2023-10-13T14:21:50;15.77;;;4.60;;
80621;SDS011;69980;51.914;7.526;2023-10-13T14:24:16;20.25;;;5.13;;
80621;SDS011;69980;51.914;7.526;2023-10-13T14:26:41;17.25;;;5.03;;
80621;SDS011;69980;51.914;7.526;2023-10-13T14:29:06;16.45;;;4.30;;
80621;SDS011;69980;51.914;7.526;2023-10-13T14:31:32;14.48;;;4.80;;